Sedgwick Reserve, California Weather observations

Data are for 10 minute period ending at time listed.
 Day   Time   Solar   Ave.   Ave.  Ave.  Vector  Max.   Baro.   Total    
  of    of     Rad.   Air    Rel.  Wind   Wind   Wind  Press.  Precip.   
Year   Day            Temp.  Hum.  Speed  Dir.   Gust                    
2016   (PST)  Kw/m2    F      %     mph   deg.    mph    mb.     in.     
-------------------------------------------------------------------------
 336   17:00   0.00   53.2    49   15.9    31    31.1   971.9    0.00 
 336   17:10   0.00   53.0    48   14.0    34    30.3   972.0    0.00 
 336   17:20   0.00   52.8    48   16.1    32    32.4   972.1    0.00 
 336   17:30   0.00   52.7    48   16.1    35    38.5   972.1    0.00 
 336   17:40   0.00   52.3    49   14.3    29    25.9   972.4    0.00 
 336   17:50   0.00   52.5    48   16.8    25    31.7   972.5    0.00 
 336   18:00   0.00   52.6    48   14.3    23    30.0   972.8    0.00 
 336   18:10   0.00   52.3    48   10.9    24    20.5   973.0    0.00 
 336   18:20   0.00   51.9    50    8.6     8    18.6   973.2    0.00 
 336   18:30   0.00   51.6    50    8.8   353    16.2   973.3    0.00 
 336   18:40   0.00   51.9    48    8.1   302    15.6   973.3    0.00 
 336   18:50   0.00   52.1    48    4.7   317    11.2   973.4    0.00 
 336   19:00   0.00   52.2    48    5.6   269    14.0   973.4    0.00 
 336   19:10   0.00   52.4    49    5.3   230     9.1   973.5    0.00 
 336   19:20   0.00   51.5    51    5.5   287     9.6   973.5    0.00 
 336   19:30   0.00   51.7    51    6.6   286    12.4   973.6    0.00 
 336   19:40   0.00   52.2    52    5.2   269    10.7   973.8    0.00 
 336   19:50   0.00   51.4    54    6.9   281    12.9   973.8    0.00 
 336   20:00   0.00   51.4    54    7.5   280    13.7   973.9    0.00 
 336   20:10   0.00   51.9    53    8.3   323    16.7   974.1    0.00 
 336   20:20   0.00   52.1    53    9.1   328    18.0   974.1    0.00 
 336   20:30   0.00   52.4    52    5.9   314    14.6   974.2    0.00 
 336   20:40   0.00   51.7    54    5.0    14    11.8   974.2    0.00 
 336   20:50   0.00   52.0    54    3.5   327     8.4   974.2    0.00 
 336   21:00   0.00   51.5    54    3.6   313     6.6   974.3    0.00 
 336   21:10   0.00   50.9    55    5.4   295     9.2   974.4    0.00 
 336   21:20   0.00   50.7    55    5.4   290     8.6   974.3    0.00 
 336   21:30   0.00   50.4    55    6.9   290    13.2   974.2    0.00 
 336   21:40   0.00   50.5    54    6.7   269    10.1   974.2    0.00 
 336   21:50   0.00   50.2    54    5.8   260     9.6   974.1    0.00 
 336   22:00   0.00   49.7    54    6.4   264    10.2   973.9    0.00 
 336   22:10   0.00   50.2    52   10.3   269    15.3   973.9    0.00 
 336   22:20   0.00   52.2    47    6.0   301    15.4   974.3    0.00 
 336   22:30   0.00   51.1    50   10.4   261    14.5   974.3    0.00 
 336   22:40   0.00   49.9    52    8.0   264    12.8   974.2    0.00 
 336   22:50   0.00   49.6    52    4.2   246     8.7   974.0    0.00 
 336   23:00   0.00   48.1    55    3.7   171     6.0   974.0    0.00 
 336   23:10   0.00   47.1    57    5.1   177     8.8   973.8    0.00 
 336   23:20   0.00   49.4    50    2.4   298     4.9   973.8    0.00 
 336   23:30   0.00   50.5    49    5.3   266     7.8   973.9    0.00 
 336   23:40   0.00   47.4    55    3.1   256     7.2   974.0    0.00 
 336   23:50   0.00   47.1    55    3.7   284     8.3   974.0    0.00 
 337    0:00   0.00   48.7    51    3.7   356     6.3   974.0    0.00 
 337    0:10   0.00   47.6    53    4.1     4     8.1   973.9    0.00 
 337    0:20   0.00   48.3    52    3.7   348     6.8   973.9    0.00 
 337    0:30   0.00   47.8    52    3.5   358     5.3   974.0    0.00 
 337    0:40   0.00   48.9    50    4.7   344     9.3   973.8    0.00 
 337    0:50   0.00   49.5    49    2.2   330     5.3   973.8    0.00 
 337    1:00   0.00   48.9    49    2.9   270     7.2   973.7    0.00 
 337    1:10   0.00   47.0    53    6.4     9    14.0   973.9    0.00 
 337    1:20   0.00   49.5    50    6.6    42    12.3   973.9    0.00 
 337    1:30   0.00   49.6    49    6.4    15    14.1   974.0    0.00 
 337    1:40   0.00   50.1    48    6.6   355    13.7   974.0    0.00 
 337    1:50   0.00   49.9    48    9.7    13    17.0   974.1    0.00 
 337    2:00   0.00   50.0    48    9.8    14    15.7   974.0    0.00 
 337    2:10   0.00   49.9    48   10.3     7    17.1   974.0    0.00 
 337    2:20   0.00   50.2    48   11.2    15    19.1   974.0    0.00 
 337    2:30   0.00   50.0    49   12.2    19    17.3   974.1    0.00 
 337    2:40   0.00   49.4    50    9.8    15    14.7   974.1    0.00 
 337    2:50   0.00   49.3    50   11.4     2    19.1   973.9    0.00 
 337    3:00   0.00   49.5    49    8.6   350    16.6   973.9    0.00 
 337    3:10   0.00   50.2    48    7.2   355    14.7   973.8    0.00 
 337    3:20   0.00   50.3    48    6.8   350    15.3   973.7    0.00 
 337    3:30   0.00   49.1    51    4.5    10    11.0   973.7    0.00 
 337    3:40   0.00   44.7    60    4.8   133     8.0   973.6    0.00 
 337    3:50   0.00   43.6    62    3.4   112     6.3   973.5    0.00 
 337    4:00   0.00   44.2    61    1.9    38     5.2   973.4    0.00 
 337    4:10   0.00   44.6    60    2.0   114     6.1   973.3    0.00 
 337    4:20   0.00   42.6    64    1.9   117     4.7   973.3    0.00 
 337    4:30   0.00   45.3    58    5.0    88    12.7   973.3    0.00 
 337    4:40   0.00   41.7    67    4.7   119     8.1   973.6    0.00 
 337    4:50   0.00   41.3    68    4.0   161     6.4   973.6    0.00 
 337    5:00   0.00   41.0    69    3.2   140     5.6   973.6    0.00 
 337    5:10   0.00   40.5    70    2.5   114     5.7   973.7    0.00 
 337    5:20   0.00   41.4    68    1.9   114     4.2   973.8    0.00 
 337    5:30   0.00   44.4    62    6.0    22    13.6   973.8    0.00 
 337    5:40   0.00   42.0    67    6.1   236    10.4   973.9    0.00 
 337    5:50   0.00   41.8    68    2.5   152     5.5   974.3    0.00 
 337    6:00   0.00   41.0    69    2.7   260     5.1   974.5    0.00 
 337    6:10   0.00   41.2    69    1.3    32     3.4   974.6    0.00 
 337    6:20   0.00   40.6    70    2.6   324     4.0   974.6    0.00 
 337    6:30   0.00   40.2    71    1.1    22     3.4   974.5    0.00 
 337    6:40   0.00   39.6    72    1.4   325     3.9   974.6    0.00 
 337    6:50   0.00   41.0    69    1.1   288     4.0   974.7    0.00 
 337    7:00   0.01   40.0    71    1.7   268     3.7   974.7    0.00 
 337    7:10   0.04   39.2    73    1.9   204     3.1   974.8    0.00 
 337    7:20   0.08   40.3    71    3.6   322     6.0   974.9    0.00 
 337    7:30   0.11   40.4    72    2.9     3     4.5   975.1    0.00 
 337    7:40   0.14   40.7    71    2.3   293     8.1   975.2    0.00 
 337    7:50   0.18   41.3    72    3.2   306     6.6   975.4    0.00 
 337    8:00   0.21   44.1    67    1.4     7     3.0   975.5    0.00 
 337    8:10   0.24   46.0    64    0.8   178     1.8   975.6    0.00 
 337    8:20   0.27   47.5    61    2.7   124     4.3   975.9    0.00 
 337    8:30   0.30   47.7    60    2.2   122     3.9   976.0    0.00 
 337    8:40   0.33   49.1    57    1.8   121     3.1   976.1    0.00 
 337    8:50   0.36   49.6    56    1.5   135     3.1   976.2    0.00 
 337    9:00   0.38   51.5    52    1.1   141     2.5   976.3    0.00 
 337    9:10   0.41   52.2    50    1.4   132     3.7   976.3    0.00 
 337    9:20   0.43   52.7    50    2.6   117     4.7   976.6    0.00 
 337    9:30   0.45   52.9    52    4.6   125     8.4   976.8    0.00 
 337    9:40   0.47   52.5    53    5.2   136     7.7   976.9    0.00 
 337    9:50   0.49   52.4    51    5.2   130     7.9   976.9    0.00 
 337   10:00   0.50   53.1    50    4.4   133     7.1   976.9    0.00 
 337   10:10   0.52   53.7    49    3.4   138     6.0   977.0    0.00 
 337   10:20   0.53   55.0    48    3.1   143     6.7   976.8    0.00 
 337   10:30   0.54   55.1    48    3.0   134     7.3   976.8    0.00 
 337   10:40   0.55   54.9    48    3.4   140     6.6   976.7    0.00 
 337   10:50   0.56   55.5    47    3.8   151     8.3   976.7    0.00 
 337   11:00   0.56   54.1    48    5.4   231     8.5   976.7    0.00 
 337   11:10   0.57   54.0    48    4.0   262     8.1   976.7    0.00 
 337   11:20   0.55   55.6    46    2.2   223     5.3   976.6    0.00 
 337   11:30   0.58   56.3    46    1.9    66     3.9   976.3    0.00 
 337   11:40   0.58   58.2    45    2.7   120     5.1   976.3    0.00 
 337   11:50   0.58   58.6    44    3.4   148     6.9   976.2    0.00 
 337   12:00   0.57   59.3    42    2.8   159     5.3   976.0    0.00 
 337   12:10   0.56   59.5    42    3.3   155     6.7   975.7    0.00 
 337   12:20   0.56   59.8    41    3.0   137     5.5   975.6    0.00 
 337   12:30   0.55   59.9    41    2.6   202     8.0   975.4    0.00 
 337   12:40   0.54   59.5    42    6.3   224    12.4   975.3    0.00 
 337   12:50   0.53   58.9    42    7.4   212    12.9   975.2    0.00 
 337   13:00   0.52   58.9    42    7.7   236    14.7   975.0    0.00 
 337   13:10   0.50   59.3    40    6.4   244    11.4   975.0    0.00 
 337   13:20   0.48   59.9    39    6.9   222    11.0   975.0    0.00 
 337   13:30   0.46   60.4    38    6.9   242    12.1   974.9    0.00 
 337   13:40   0.44   60.6    37    5.9   245    12.2   974.8    0.00 
 337   13:50   0.42   61.0    36    8.0   230    14.0   974.7    0.00 
 337   14:00   0.40   61.0    34    7.9   232    12.7   974.6    0.00 
 337   14:10   0.38   61.0    32    8.9   236    15.0   974.4    0.00 
 337   14:20   0.35   61.4    30    8.3   245    15.1   974.3    0.00 
 337   14:30   0.33   62.4    27    8.3   348    17.8   974.4    0.00 
 337   14:40   0.30   62.6    26    7.4   340    14.5   974.5    0.00 
 337   14:50   0.28   62.1    25    8.8   343    17.9   974.6    0.00 
 337   15:00   0.25   62.0    23    7.9   342    12.9   974.7    0.00 
 337   15:10   0.22   61.8    22    8.1   347    19.2   974.7    0.00 
 337   15:20   0.19   61.3    21    8.7   340    17.4   974.8    0.00 
 337   15:30   0.17   60.8    20    8.4   346    18.0   974.8    0.00 
 337   15:40   0.14   60.5    20    8.2   345    15.3   974.9    0.00 
 337   15:50   0.11   59.6    22   11.7    13    23.3   974.9    0.00 
 337   16:00   0.08   59.4    23    9.0    21    16.4   975.1    0.00 
 337   16:10   0.05   58.1    27   11.9     9    25.9   975.2    0.00 
 337   16:20   0.03   57.5    27    8.0    15    14.7   975.3    0.00 
 337   16:30   0.01   57.2    28    7.7     9    16.0   975.4    0.00 
 337   16:40   0.01   55.8    30    9.8    11    15.6   975.6    0.00 
 337   16:50   0.00   55.3    31   10.6     8    16.4   975.6    0.00 

Return to Sedgwick Reserve graphs page.


Western Regional Climate Center,wrcc@dri.edu